sensor_id;sensor_type;location;lat;lon;timestamp;temperature;humidity
20654;DHT22;21083;50.898;4.902;2024-03-08T00:01:05;6.60;99.90
20654;DHT22;21083;50.898;4.902;2024-03-08T00:03:32;6.60;99.90
20654;DHT22;21083;50.898;4.902;2024-03-08T00:05:59;6.60;99.90
20654;DHT22;21083;50.898;4.902;2024-03-08T00:08:27;6.50;99.90
20654;DHT22;21083;50.898;4.902;2024-03-08T00:10:54;6.40;99.90
20654;DHT22;21083;50.898;4.902;2024-03-08T00:13:21;6.30;99.90
20654;DHT22;21083;50.898;4.902;2024-03-08T00:15:48;6.40;99.90
20654;DHT22;21083;50.898;4.902;2024-03-08T00:18:16;6.50;99.90
20654;DHT22;21083;50.898;4.902;2024-03-08T00:20:43;6.50;99.90
20654;DHT22;21083;50.898;4.902;2024-03-08T00:23:11;6.30;99.90
20654;DHT22;21083;50.898;4.902;2024-03-08T00:25:38;6.30;99.90
20654;DHT22;21083;50.898;4.902;2024-03-08T00:28:05;6.30;99.90
20654;DHT22;21083;50.898;4.902;2024-03-08T00:30:32;6.30;99.90
20654;DHT22;21083;50.898;4.902;2024-03-08T00:32:59;6.50;99.90
20654;DHT22;21083;50.898;4.902;2024-03-08T00:35:28;6.60;99.90
20654;DHT22;21083;50.898;4.902;2024-03-08T00:37:55;6.50;99.90
20654;DHT22;21083;50.898;4.902;2024-03-08T00:40:23;6.40;99.90
20654;DHT22;21083;50.898;4.902;2024-03-08T00:42:50;6.40;99.90
20654;DHT22;21083;50.898;4.902;2024-03-08T00:45:18;6.40;99.90
20654;DHT22;21083;50.898;4.902;2024-03-08T00:47:46;6.40;99.90
20654;DHT22;21083;50.898;4.902;2024-03-08T00:50:13;6.40;99.90
20654;DHT22;21083;50.898;4.902;2024-03-08T00:52:41;6.30;99.90
20654;DHT22;21083;50.898;4.902;2024-03-08T00:55:08;6.20;99.90
20654;DHT22;21083;50.898;4.902;2024-03-08T00:57:36;6.10;99.90
20654;DHT22;21083;50.898;4.902;2024-03-08T01:00:05;6.00;99.90
20654;DHT22;21083;50.898;4.902;2024-03-08T01:02:37;6.00;99.90
20654;DHT22;21083;50.898;4.902;2024-03-08T01:05:05;6.10;99.90
20654;DHT22;21083;50.898;4.902;2024-03-08T01:07:33;6.00;99.90
20654;DHT22;21083;50.898;4.902;2024-03-08T01:10:02;6.00;99.90
20654;DHT22;21083;50.898;4.902;2024-03-08T01:12:29;6.00;99.90
20654;DHT22;21083;50.898;4.902;2024-03-08T01:14:56;5.90;99.90
20654;DHT22;21083;50.898;4.902;2024-03-08T01:17:24;5.90;99.90
20654;DHT22;21083;50.898;4.902;2024-03-08T01:19:51;5.90;99.90
20654;DHT22;21083;50.898;4.902;2024-03-08T01:22:19;5.80;99.90
20654;DHT22;21083;50.898;4.902;2024-03-08T01:24:46;5.70;99.90
20654;DHT22;21083;50.898;4.902;2024-03-08T01:27:14;5.80;99.90
20654;DHT22;21083;50.898;4.902;2024-03-08T01:29:41;5.80;99.90
20654;DHT22;21083;50.898;4.902;2024-03-08T01:32:08;5.70;99.90
20654;DHT22;21083;50.898;4.902;2024-03-08T01:34:35;5.70;99.90
20654;DHT22;21083;50.898;4.902;2024-03-08T01:37:02;5.80;99.90
20654;DHT22;21083;50.898;4.902;2024-03-08T01:39:29;5.70;99.90
20654;DHT22;21083;50.898;4.902;2024-03-08T01:41:58;5.70;99.90
20654;DHT22;21083;50.898;4.902;2024-03-08T01:44:27;5.70;99.90
20654;DHT22;21083;50.898;4.902;2024-03-08T01:46:56;5.70;99.90
20654;DHT22;21083;50.898;4.902;2024-03-08T01:49:24;5.70;99.90
20654;DHT22;21083;50.898;4.902;2024-03-08T01:51:55;5.70;99.90
20654;DHT22;21083;50.898;4.902;2024-03-08T01:54:23;5.60;99.90
20654;DHT22;21083;50.898;4.902;2024-03-08T01:56:50;5.60;99.90
20654;DHT22;21083;50.898;4.902;2024-03-08T01:59:19;5.50;99.90
20654;DHT22;21083;50.898;4.902;2024-03-08T02:01:47;5.50;99.90
20654;DHT22;21083;50.898;4.902;2024-03-08T02:04:14;5.40;99.90
20654;DHT22;21083;50.898;4.902;2024-03-08T02:06:42;5.30;99.90
20654;DHT22;21083;50.898;4.902;2024-03-08T02:09:10;5.30;99.90
20654;DHT22;21083;50.898;4.902;2024-03-08T02:11:37;5.30;99.90
20654;DHT22;21083;50.898;4.902;2024-03-08T02:14:06;5.30;99.90
20654;DHT22;21083;50.898;4.902;2024-03-08T02:16:33;5.20;99.90
20654;DHT22;21083;50.898;4.902;2024-03-08T02:19:01;5.30;99.90
20654;DHT22;21083;50.898;4.902;2024-03-08T02:21:30;5.30;99.90
20654;DHT22;21083;50.898;4.902;2024-03-08T02:23:58;5.30;99.90
20654;DHT22;21083;50.898;4.902;2024-03-08T02:26:25;5.30;99.90
20654;DHT22;21083;50.898;4.902;2024-03-08T02:28:53;5.30;99.90
20654;DHT22;21083;50.898;4.902;2024-03-08T02:31:20;5.20;99.90
20654;DHT22;21083;50.898;4.902;2024-03-08T02:33:47;5.30;99.90
20654;DHT22;21083;50.898;4.902;2024-03-08T02:36:14;5.20;99.90
20654;DHT22;21083;50.898;4.902;2024-03-08T02:38:43;5.30;99.90
20654;DHT22;21083;50.898;4.902;2024-03-08T02:41:10;5.40;99.90
20654;DHT22;21083;50.898;4.902;2024-03-08T02:43:38;5.30;99.90
20654;DHT22;21083;50.898;4.902;2024-03-08T02:46:05;5.30;99.90
20654;DHT22;21083;50.898;4.902;2024-03-08T02:48:32;5.20;99.90
20654;DHT22;21083;50.898;4.902;2024-03-08T02:50:59;5.20;99.90
20654;DHT22;21083;50.898;4.902;2024-03-08T02:53:27;5.20;99.90
20654;DHT22;21083;50.898;4.902;2024-03-08T02:55:56;5.20;99.90
20654;DHT22;21083;50.898;4.902;2024-03-08T02:58:23;5.10;99.90
20654;DHT22;21083;50.898;4.902;2024-03-08T03:00:50;5.10;99.90
20654;DHT22;21083;50.898;4.902;2024-03-08T03:03:17;5.00;99.90
20654;DHT22;21083;50.898;4.902;2024-03-08T03:05:44;4.90;99.90
20654;DHT22;21083;50.898;4.902;2024-03-08T03:08:11;5.00;99.90
20654;DHT22;21083;50.898;4.902;2024-03-08T03:10:39;4.90;99.90
20654;DHT22;21083;50.898;4.902;2024-03-08T03:13:07;4.90;99.90
20654;DHT22;21083;50.898;4.902;2024-03-08T03:15:34;4.90;99.90
20654;DHT22;21083;50.898;4.902;2024-03-08T03:18:02;4.90;99.90
20654;DHT22;21083;50.898;4.902;2024-03-08T03:20:29;4.90;99.90
20654;DHT22;21083;50.898;4.902;2024-03-08T03:22:59;4.80;99.90
20654;DHT22;21083;50.898;4.902;2024-03-08T03:25:29;4.80;99.90
20654;DHT22;21083;50.898;4.902;2024-03-08T03:28:00;4.70;99.90
20654;DHT22;21083;50.898;4.902;2024-03-08T03:30:28;4.70;99.90
20654;DHT22;21083;50.898;4.902;2024-03-08T03:32:59;4.70;99.90
20654;DHT22;21083;50.898;4.902;2024-03-08T03:35:27;4.60;99.90
20654;DHT22;21083;50.898;4.902;2024-03-08T03:37:54;4.60;99.90
20654;DHT22;21083;50.898;4.902;2024-03-08T03:40:33;4.50;99.90
20654;DHT22;21083;50.898;4.902;2024-03-08T03:43:00;4.50;99.90
20654;DHT22;21083;50.898;4.902;2024-03-08T03:45:30;4.50;99.90
20654;DHT22;21083;50.898;4.902;2024-03-08T03:48:01;4.50;99.90
20654;DHT22;21083;50.898;4.902;2024-03-08T03:50:28;4.40;99.90
20654;DHT22;21083;50.898;4.902;2024-03-08T03:52:55;4.50;99.90
20654;DHT22;21083;50.898;4.902;2024-03-08T03:55:23;4.50;99.90
20654;DHT22;21083;50.898;4.902;2024-03-08T03:57:50;4.70;99.90
20654;DHT22;21083;50.898;4.902;2024-03-08T04:00:18;4.60;99.90
20654;DHT22;21083;50.898;4.902;2024-03-08T04:02:46;4.50;99.90
20654;DHT22;21083;50.898;4.902;2024-03-08T04:05:14;4.50;99.90
20654;DHT22;21083;50.898;4.902;2024-03-08T04:07:41;4.40;99.90
20654;DHT22;21083;50.898;4.902;2024-03-08T04:10:11;4.50;99.90
20654;DHT22;21083;50.898;4.902;2024-03-08T04:12:38;4.40;99.90
20654;DHT22;21083;50.898;4.902;2024-03-08T04:15:06;4.40;99.90
20654;DHT22;21083;50.898;4.902;2024-03-08T04:17:33;4.30;99.90
20654;DHT22;21083;50.898;4.902;2024-03-08T04:20:05;4.20;99.90
20654;DHT22;21083;50.898;4.902;2024-03-08T04:22:36;4.30;99.90
20654;DHT22;21083;50.898;4.902;2024-03-08T04:25:03;4.20;99.90
20654;DHT22;21083;50.898;4.902;2024-03-08T04:27:31;4.30;99.90
20654;DHT22;21083;50.898;4.902;2024-03-08T04:29:58;4.30;99.90
20654;DHT22;21083;50.898;4.902;2024-03-08T04:32:25;4.20;99.90
20654;DHT22;21083;50.898;4.902;2024-03-08T04:34:53;4.10;99.90
20654;DHT22;21083;50.898;4.902;2024-03-08T04:37:22;4.20;99.90
20654;DHT22;21083;50.898;4.902;2024-03-08T04:39:49;4.20;99.90
20654;DHT22;21083;50.898;4.902;2024-03-08T04:42:16;4.20;99.90
20654;DHT22;21083;50.898;4.902;2024-03-08T04:44:44;4.20;99.90
20654;DHT22;21083;50.898;4.902;2024-03-08T04:47:11;4.10;99.90
20654;DHT22;21083;50.898;4.902;2024-03-08T04:49:38;4.10;99.90
20654;DHT22;21083;50.898;4.902;2024-03-08T04:52:05;4.10;99.90
20654;DHT22;21083;50.898;4.902;2024-03-08T04:54:34;4.10;99.90
20654;DHT22;21083;50.898;4.902;2024-03-08T04:57:01;4.00;99.90
20654;DHT22;21083;50.898;4.902;2024-03-08T04:59:30;3.90;99.90
20654;DHT22;21083;50.898;4.902;2024-03-08T05:01:57;4.10;99.90
20654;DHT22;21083;50.898;4.902;2024-03-08T05:04:24;4.00;99.90
20654;DHT22;21083;50.898;4.902;2024-03-08T05:06:51;3.90;99.90
20654;DHT22;21083;50.898;4.902;2024-03-08T05:09:19;4.00;99.90
20654;DHT22;21083;50.898;4.902;2024-03-08T05:11:47;4.10;99.90
20654;DHT22;21083;50.898;4.902;2024-03-08T05:14:15;4.00;99.90
20654;DHT22;21083;50.898;4.902;2024-03-08T05:16:45;3.90;99.90
20654;DHT22;21083;50.898;4.902;2024-03-08T05:19:14;3.90;99.90
20654;DHT22;21083;50.898;4.902;2024-03-08T05:21:43;3.80;99.90
20654;DHT22;21083;50.898;4.902;2024-03-08T05:24:10;3.90;99.90
20654;DHT22;21083;50.898;4.902;2024-03-08T05:26:39;3.90;99.90
20654;DHT22;21083;50.898;4.902;2024-03-08T05:29:07;3.90;99.90
20654;DHT22;21083;50.898;4.902;2024-03-08T05:31:41;3.90;99.90
20654;DHT22;21083;50.898;4.902;2024-03-08T05:34:09;3.90;99.90
20654;DHT22;21083;50.898;4.902;2024-03-08T05:36:36;3.80;99.90
20654;DHT22;21083;50.898;4.902;2024-03-08T05:39:03;3.70;99.90
20654;DHT22;21083;50.898;4.902;2024-03-08T05:41:32;3.70;99.90
20654;DHT22;21083;50.898;4.902;2024-03-08T05:43:59;3.70;99.90
20654;DHT22;21083;50.898;4.902;2024-03-08T05:46:27;3.70;99.90
20654;DHT22;21083;50.898;4.902;2024-03-08T05:48:54;3.60;99.90
20654;DHT22;21083;50.898;4.902;2024-03-08T05:51:23;3.70;99.90
20654;DHT22;21083;50.898;4.902;2024-03-08T05:53:52;3.80;99.90
20654;DHT22;21083;50.898;4.902;2024-03-08T05:56:22;3.80;99.90
20654;DHT22;21083;50.898;4.902;2024-03-08T05:58:49;3.70;99.90
20654;DHT22;21083;50.898;4.902;2024-03-08T06:01:16;3.70;99.90
20654;DHT22;21083;50.898;4.902;2024-03-08T06:03:45;3.70;99.90
20654;DHT22;21083;50.898;4.902;2024-03-08T06:06:13;3.70;99.90
20654;DHT22;21083;50.898;4.902;2024-03-08T06:08:41;3.70;99.90
20654;DHT22;21083;50.898;4.902;2024-03-08T06:11:09;3.60;99.90
20654;DHT22;21083;50.898;4.902;2024-03-08T06:13:36;3.70;99.90
20654;DHT22;21083;50.898;4.902;2024-03-08T06:16:04;3.70;99.90
20654;DHT22;21083;50.898;4.902;2024-03-08T06:18:33;3.70;99.90
20654;DHT22;21083;50.898;4.902;2024-03-08T06:21:04;3.70;99.90
20654;DHT22;21083;50.898;4.902;2024-03-08T06:23:31;3.70;99.90
20654;DHT22;21083;50.898;4.902;2024-03-08T06:25:58;3.70;99.90
20654;DHT22;21083;50.898;4.902;2024-03-08T06:28:25;3.80;99.90
20654;DHT22;21083;50.898;4.902;2024-03-08T06:30:52;3.70;99.90
20654;DHT22;21083;50.898;4.902;2024-03-08T06:33:20;3.60;99.90
20654;DHT22;21083;50.898;4.902;2024-03-08T06:35:47;3.60;99.90
20654;DHT22;21083;50.898;4.902;2024-03-08T06:38:15;3.60;99.90
20654;DHT22;21083;50.898;4.902;2024-03-08T06:40:42;3.60;99.90
20654;DHT22;21083;50.898;4.902;2024-03-08T06:43:09;3.60;99.90
20654;DHT22;21083;50.898;4.902;2024-03-08T06:45:40;3.70;99.90
20654;DHT22;21083;50.898;4.902;2024-03-08T06:48:07;3.90;99.90
20654;DHT22;21083;50.898;4.902;2024-03-08T06:50:35;3.90;99.90
20654;DHT22;21083;50.898;4.902;2024-03-08T06:53:03;3.90;99.90
20654;DHT22;21083;50.898;4.902;2024-03-08T06:55:31;4.00;99.90
20654;DHT22;21083;50.898;4.902;2024-03-08T06:57:59;4.00;99.90
20654;DHT22;21083;50.898;4.902;2024-03-08T07:00:26;4.00;99.90
20654;DHT22;21083;50.898;4.902;2024-03-08T07:02:56;4.00;99.90
20654;DHT22;21083;50.898;4.902;2024-03-08T07:05:26;4.00;99.90
20654;DHT22;21083;50.898;4.902;2024-03-08T07:07:53;4.10;99.90
20654;DHT22;21083;50.898;4.902;2024-03-08T07:10:22;4.10;99.90
20654;DHT22;21083;50.898;4.902;2024-03-08T07:12:51;4.30;99.90
20654;DHT22;21083;50.898;4.902;2024-03-08T07:15:19;4.30;99.90
20654;DHT22;21083;50.898;4.902;2024-03-08T07:17:47;4.30;99.90
20654;DHT22;21083;50.898;4.902;2024-03-08T07:20:14;4.30;99.90
20654;DHT22;21083;50.898;4.902;2024-03-08T07:22:44;4.40;99.90
20654;DHT22;21083;50.898;4.902;2024-03-08T07:25:13;4.40;99.90
20654;DHT22;21083;50.898;4.902;2024-03-08T07:27:52;4.50;99.90
20654;DHT22;21083;50.898;4.902;2024-03-08T07:30:20;4.60;99.90
20654;DHT22;21083;50.898;4.902;2024-03-08T07:33:05;4.70;99.90
20654;DHT22;21083;50.898;4.902;2024-03-08T07:35:33;4.80;99.90
20654;DHT22;21083;50.898;4.902;2024-03-08T07:38:03;4.80;99.90
20654;DHT22;21083;50.898;4.902;2024-03-08T07:40:31;4.90;99.90
20654;DHT22;21083;50.898;4.902;2024-03-08T07:43:00;5.00;99.90
20654;DHT22;21083;50.898;4.902;2024-03-08T07:45:28;5.00;99.90
20654;DHT22;21083;50.898;4.902;2024-03-08T07:47:56;5.10;99.90
20654;DHT22;21083;50.898;4.902;2024-03-08T07:50:23;5.10;99.90
20654;DHT22;21083;50.898;4.902;2024-03-08T07:52:50;5.10;99.90
20654;DHT22;21083;50.898;4.902;2024-03-08T07:55:17;5.30;99.90
20654;DHT22;21083;50.898;4.902;2024-03-08T07:57:45;5.50;99.90
20654;DHT22;21083;50.898;4.902;2024-03-08T08:00:15;5.60;99.90
20654;DHT22;21083;50.898;4.902;2024-03-08T08:02:44;5.50;99.90
20654;DHT22;21083;50.898;4.902;2024-03-08T08:05:12;5.50;99.90
20654;DHT22;21083;50.898;4.902;2024-03-08T08:07:39;5.50;99.90
20654;DHT22;21083;50.898;4.902;2024-03-08T08:10:09;5.60;99.90
20654;DHT22;21083;50.898;4.902;2024-03-08T08:12:44;5.70;99.90
20654;DHT22;21083;50.898;4.902;2024-03-08T08:15:11;5.80;99.90
20654;DHT22;21083;50.898;4.902;2024-03-08T08:17:40;5.90;99.90
20654;DHT22;21083;50.898;4.902;2024-03-08T08:20:07;6.00;99.90
20654;DHT22;21083;50.898;4.902;2024-03-08T08:22:35;6.10;99.90
20654;DHT22;21083;50.898;4.902;2024-03-08T08:25:02;6.20;99.90
20654;DHT22;21083;50.898;4.902;2024-03-08T08:27:29;6.30;99.90
20654;DHT22;21083;50.898;4.902;2024-03-08T08:29:56;6.30;99.90
20654;DHT22;21083;50.898;4.902;2024-03-08T08:32:23;6.30;99.90
20654;DHT22;21083;50.898;4.902;2024-03-08T08:34:52;6.40;99.90
20654;DHT22;21083;50.898;4.902;2024-03-08T08:37:19;6.50;99.90
20654;DHT22;21083;50.898;4.902;2024-03-08T08:39:46;6.60;99.90
20654;DHT22;21083;50.898;4.902;2024-03-08T08:42:13;6.70;99.90
20654;DHT22;21083;50.898;4.902;2024-03-08T08:44:40;6.80;99.90
20654;DHT22;21083;50.898;4.902;2024-03-08T08:47:07;6.80;99.90
20654;DHT22;21083;50.898;4.902;2024-03-08T08:49:34;7.00;99.90
20654;DHT22;21083;50.898;4.902;2024-03-08T08:52:03;7.10;99.90
20654;DHT22;21083;50.898;4.902;2024-03-08T08:54:31;7.10;99.90
20654;DHT22;21083;50.898;4.902;2024-03-08T08:56:58;7.30;99.90
20654;DHT22;21083;50.898;4.902;2024-03-08T08:59:25;7.40;99.90
20654;DHT22;21083;50.898;4.902;2024-03-08T09:01:52;7.50;99.90
20654;DHT22;21083;50.898;4.902;2024-03-08T09:04:20;7.60;99.90
20654;DHT22;21083;50.898;4.902;2024-03-08T09:06:48;7.60;99.90
20654;DHT22;21083;50.898;4.902;2024-03-08T09:09:17;7.80;99.90
20654;DHT22;21083;50.898;4.902;2024-03-08T09:11:44;7.80;99.90
20654;DHT22;21083;50.898;4.902;2024-03-08T09:14:11;7.90;99.90
20654;DHT22;21083;50.898;4.902;2024-03-08T09:16:39;8.00;99.90
20654;DHT22;21083;50.898;4.902;2024-03-08T09:19:07;8.20;99.90
20654;DHT22;21083;50.898;4.902;2024-03-08T09:21:36;8.40;99.90
20654;DHT22;21083;50.898;4.902;2024-03-08T09:24:05;8.40;99.90
20654;DHT22;21083;50.898;4.902;2024-03-08T09:26:34;8.40;99.90
20654;DHT22;21083;50.898;4.902;2024-03-08T09:29:01;8.60;99.90
20654;DHT22;21083;50.898;4.902;2024-03-08T09:31:28;8.60;99.90
20654;DHT22;21083;50.898;4.902;2024-03-08T09:33:56;8.70;99.90
20654;DHT22;21083;50.898;4.902;2024-03-08T09:36:23;8.70;99.90
20654;DHT22;21083;50.898;4.902;2024-03-08T09:38:50;8.90;99.90
20654;DHT22;21083;50.898;4.902;2024-03-08T09:41:18;9.00;99.90
20654;DHT22;21083;50.898;4.902;2024-03-08T09:43:47;9.10;99.90
20654;DHT22;21083;50.898;4.902;2024-03-08T09:46:15;9.40;99.90
20654;DHT22;21083;50.898;4.902;2024-03-08T09:48:42;9.40;99.90
20654;DHT22;21083;50.898;4.902;2024-03-08T09:51:10;9.50;99.90
20654;DHT22;21083;50.898;4.902;2024-03-08T09:53:41;9.60;99.90
20654;DHT22;21083;50.898;4.902;2024-03-08T09:56:08;9.80;99.90
20654;DHT22;21083;50.898;4.902;2024-03-08T09:58:37;9.90;99.90
20654;DHT22;21083;50.898;4.902;2024-03-08T10:01:20;10.10;99.90
20654;DHT22;21083;50.898;4.902;2024-03-08T10:03:48;10.30;99.90
20654;DHT22;21083;50.898;4.902;2024-03-08T10:06:16;10.50;99.90
20654;DHT22;21083;50.898;4.902;2024-03-08T10:08:43;10.70;99.90
20654;DHT22;21083;50.898;4.902;2024-03-08T10:11:11;10.90;99.90
20654;DHT22;21083;50.898;4.902;2024-03-08T10:13:38;10.80;99.90
20654;DHT22;21083;50.898;4.902;2024-03-08T10:16:08;10.90;99.90
20654;DHT22;21083;50.898;4.902;2024-03-08T10:18:36;11.00;99.90
20654;DHT22;21083;50.898;4.902;2024-03-08T10:21:05;11.20;99.90
20654;DHT22;21083;50.898;4.902;2024-03-08T10:23:34;11.30;99.90
20654;DHT22;21083;50.898;4.902;2024-03-08T10:26:11;11.50;99.90
20654;DHT22;21083;50.898;4.902;2024-03-08T10:28:41;11.60;99.90
20654;DHT22;21083;50.898;4.902;2024-03-08T10:31:08;11.70;99.90
20654;DHT22;21083;50.898;4.902;2024-03-08T10:33:37;11.90;99.90
20654;DHT22;21083;50.898;4.902;2024-03-08T10:36:07;12.10;99.90
20654;DHT22;21083;50.898;4.902;2024-03-08T10:38:37;12.20;99.90
20654;DHT22;21083;50.898;4.902;2024-03-08T10:41:05;12.30;99.90
20654;DHT22;21083;50.898;4.902;2024-03-08T10:43:46;12.40;99.90
20654;DHT22;21083;50.898;4.902;2024-03-08T10:46:27;12.60;99.90
20654;DHT22;21083;50.898;4.902;2024-03-08T10:49:00;12.60;99.90
20654;DHT22;21083;50.898;4.902;2024-03-08T10:51:31;12.80;99.90
20654;DHT22;21083;50.898;4.902;2024-03-08T10:53:59;13.00;99.90
20654;DHT22;21083;50.898;4.902;2024-03-08T10:56:29;13.10;99.90
20654;DHT22;21083;50.898;4.902;2024-03-08T10:58:56;13.20;99.90
20654;DHT22;21083;50.898;4.902;2024-03-08T11:01:23;13.30;99.90
20654;DHT22;21083;50.898;4.902;2024-03-08T11:03:51;13.40;99.90
20654;DHT22;21083;50.898;4.902;2024-03-08T11:06:30;13.50;99.90
20654;DHT22;21083;50.898;4.902;2024-03-08T11:08:57;13.50;99.90
20654;DHT22;21083;50.898;4.902;2024-03-08T11:11:26;13.70;99.90
20654;DHT22;21083;50.898;4.902;2024-03-08T11:13:56;13.90;99.90
20654;DHT22;21083;50.898;4.902;2024-03-08T11:16:39;14.10;99.90
20654;DHT22;21083;50.898;4.902;2024-03-08T11:19:24;14.20;99.90
20654;DHT22;21083;50.898;4.902;2024-03-08T11:22:05;14.40;99.90
20654;DHT22;21083;50.898;4.902;2024-03-08T11:24:39;14.60;99.90
20654;DHT22;21083;50.898;4.902;2024-03-08T11:27:07;14.60;99.90
20654;DHT22;21083;50.898;4.902;2024-03-08T11:29:38;14.60;99.90
20654;DHT22;21083;50.898;4.902;2024-03-08T11:32:10;14.40;99.90
20654;DHT22;21083;50.898;4.902;2024-03-08T11:34:41;14.50;99.90
20654;DHT22;21083;50.898;4.902;2024-03-08T11:37:15;14.70;99.90
20654;DHT22;21083;50.898;4.902;2024-03-08T11:39:47;14.80;99.90
20654;DHT22;21083;50.898;4.902;2024-03-08T11:42:15;15.10;99.90
20654;DHT22;21083;50.898;4.902;2024-03-08T11:44:41;15.10;99.90
20654;DHT22;21083;50.898;4.902;2024-03-08T11:47:10;15.30;99.90
20654;DHT22;21083;50.898;4.902;2024-03-08T11:49:37;15.50;99.90
20654;DHT22;21083;50.898;4.902;2024-03-08T11:52:05;15.60;99.90
20654;DHT22;21083;50.898;4.902;2024-03-08T11:54:34;15.60;99.90
20654;DHT22;21083;50.898;4.902;2024-03-08T11:57:01;15.70;99.90
20654;DHT22;21083;50.898;4.902;2024-03-08T11:59:29;16.00;99.90
20654;DHT22;21083;50.898;4.902;2024-03-08T12:02:01;16.10;99.90
20654;DHT22;21083;50.898;4.902;2024-03-08T12:04:29;16.10;99.90
20654;DHT22;21083;50.898;4.902;2024-03-08T12:06:59;16.20;99.90
20654;DHT22;21083;50.898;4.902;2024-03-08T12:09:27;16.30;99.90
20654;DHT22;21083;50.898;4.902;2024-03-08T12:11:57;16.40;99.90
20654;DHT22;21083;50.898;4.902;2024-03-08T12:14:25;16.50;99.90
20654;DHT22;21083;50.898;4.902;2024-03-08T12:16:52;16.70;99.90
20654;DHT22;21083;50.898;4.902;2024-03-08T12:19:19;17.00;99.90
20654;DHT22;21083;50.898;4.902;2024-03-08T12:21:47;17.20;99.90
20654;DHT22;21083;50.898;4.902;2024-03-08T12:24:16;17.20;99.90
20654;DHT22;21083;50.898;4.902;2024-03-08T12:26:46;17.40;99.90
20654;DHT22;21083;50.898;4.902;2024-03-08T12:29:24;17.60;99.90
20654;DHT22;21083;50.898;4.902;2024-03-08T12:31:55;17.80;99.90
20654;DHT22;21083;50.898;4.902;2024-03-08T12:34:24;17.90;99.90
20654;DHT22;21083;50.898;4.902;2024-03-08T12:36:52;18.20;99.90
20654;DHT22;21083;50.898;4.902;2024-03-08T12:39:21;18.20;99.90
20654;DHT22;21083;50.898;4.902;2024-03-08T12:41:52;18.20;99.90
20654;DHT22;21083;50.898;4.902;2024-03-08T12:44:21;18.30;99.90
20654;DHT22;21083;50.898;4.902;2024-03-08T12:46:49;18.40;99.90
20654;DHT22;21083;50.898;4.902;2024-03-08T12:49:17;18.50;99.90
20654;DHT22;21083;50.898;4.902;2024-03-08T12:51:44;18.50;99.90
20654;DHT22;21083;50.898;4.902;2024-03-08T12:54:12;18.50;99.90
20654;DHT22;21083;50.898;4.902;2024-03-08T12:56:39;18.60;99.90
20654;DHT22;21083;50.898;4.902;2024-03-08T12:59:07;18.70;99.90
20654;DHT22;21083;50.898;4.902;2024-03-08T13:01:37;18.80;99.90
20654;DHT22;21083;50.898;4.902;2024-03-08T13:04:04;19.10;99.90
20654;DHT22;21083;50.898;4.902;2024-03-08T13:06:32;19.30;99.90
20654;DHT22;21083;50.898;4.902;2024-03-08T13:09:00;19.20;99.90
20654;DHT22;21083;50.898;4.902;2024-03-08T13:11:31;19.50;99.90
20654;DHT22;21083;50.898;4.902;2024-03-08T13:14:03;19.80;99.90
20654;DHT22;21083;50.898;4.902;2024-03-08T13:16:30;20.00;99.90
20654;DHT22;21083;50.898;4.902;2024-03-08T13:19:01;19.70;99.90
20654;DHT22;21083;50.898;4.902;2024-03-08T13:21:29;19.90;99.90
20654;DHT22;21083;50.898;4.902;2024-03-08T13:23:57;20.10;99.90
20654;DHT22;21083;50.898;4.902;2024-03-08T13:26:26;20.30;99.90
20654;DHT22;21083;50.898;4.902;2024-03-08T13:28:58;20.20;99.90
20654;DHT22;21083;50.898;4.902;2024-03-08T13:31:25;20.50;99.90
20654;DHT22;21083;50.898;4.902;2024-03-08T13:33:52;20.50;99.90
20654;DHT22;21083;50.898;4.902;2024-03-08T13:36:25;20.50;99.90
20654;DHT22;21083;50.898;4.902;2024-03-08T13:38:55;20.70;99.90
20654;DHT22;21083;50.898;4.902;2024-03-08T13:41:24;20.70;99.90
20654;DHT22;21083;50.898;4.902;2024-03-08T13:43:51;20.50;99.90
20654;DHT22;21083;50.898;4.902;2024-03-08T13:46:21;20.70;99.90
20654;DHT22;21083;50.898;4.902;2024-03-08T13:48:48;21.00;99.90
20654;DHT22;21083;50.898;4.902;2024-03-08T13:51:16;21.10;99.90
20654;DHT22;21083;50.898;4.902;2024-03-08T13:53:45;21.10;99.90
20654;DHT22;21083;50.898;4.902;2024-03-08T13:56:12;21.20;99.90
20654;DHT22;21083;50.898;4.902;2024-03-08T13:58:40;21.30;99.90
20654;DHT22;21083;50.898;4.902;2024-03-08T14:01:09;21.50;99.90
20654;DHT22;21083;50.898;4.902;2024-03-08T14:03:37;21.80;99.90
20654;DHT22;21083;50.898;4.902;2024-03-08T14:06:07;21.80;99.90
20654;DHT22;21083;50.898;4.902;2024-03-08T14:08:35;21.90;99.90
20654;DHT22;21083;50.898;4.902;2024-03-08T14:11:04;22.10;99.90
20654;DHT22;21083;50.898;4.902;2024-03-08T14:13:41;22.20;99.90
20654;DHT22;21083;50.898;4.902;2024-03-08T14:16:10;22.40;99.90
20654;DHT22;21083;50.898;4.902;2024-03-08T14:18:37;22.40;99.90
20654;DHT22;21083;50.898;4.902;2024-03-08T14:21:05;22.50;99.90
20654;DHT22;21083;50.898;4.902;2024-03-08T14:23:32;22.60;99.90
20654;DHT22;21083;50.898;4.902;2024-03-08T14:25:59;22.60;99.90
20654;DHT22;21083;50.898;4.902;2024-03-08T14:28:37;22.90;99.90
20654;DHT22;21083;50.898;4.902;2024-03-08T14:31:05;22.60;99.90
20654;DHT22;21083;50.898;4.902;2024-03-08T14:33:36;22.80;99.90
20654;DHT22;21083;50.898;4.902;2024-03-08T14:36:04;23.10;99.90
20654;DHT22;21083;50.898;4.902;2024-03-08T14:38:32;23.40;99.90
20654;DHT22;21083;50.898;4.902;2024-03-08T14:41:00;23.80;99.90
20654;DHT22;21083;50.898;4.902;2024-03-08T14:43:29;24.00;99.90
20654;DHT22;21083;50.898;4.902;2024-03-08T14:45:59;23.90;99.90
20654;DHT22;21083;50.898;4.902;2024-03-08T14:48:27;23.90;99.90
20654;DHT22;21083;50.898;4.902;2024-03-08T14:50:54;23.70;99.90
20654;DHT22;21083;50.898;4.902;2024-03-08T14:53:21;23.50;99.90
20654;DHT22;21083;50.898;4.902;2024-03-08T14:55:51;23.90;99.90
20654;DHT22;21083;50.898;4.902;2024-03-08T14:58:18;24.30;99.90
20654;DHT22;21083;50.898;4.902;2024-03-08T15:00:47;24.70;99.90
20654;DHT22;21083;50.898;4.902;2024-03-08T15:03:15;24.60;99.90
20654;DHT22;21083;50.898;4.902;2024-03-08T15:05:43;24.00;99.90
20654;DHT22;21083;50.898;4.902;2024-03-08T15:08:13;23.90;99.90
20654;DHT22;21083;50.898;4.902;2024-03-08T15:10:45;23.90;99.90
20654;DHT22;21083;50.898;4.902;2024-03-08T15:13:13;23.40;99.90
20654;DHT22;21083;50.898;4.902;2024-03-08T15:15:46;22.60;99.90
20654;DHT22;21083;50.898;4.902;2024-03-08T15:18:22;22.50;99.90
20654;DHT22;21083;50.898;4.902;2024-03-08T15:20:52;22.70;99.90
20654;DHT22;21083;50.898;4.902;2024-03-08T15:23:19;23.20;99.90
20654;DHT22;21083;50.898;4.902;2024-03-08T15:25:47;23.60;99.90
20654;DHT22;21083;50.898;4.902;2024-03-08T15:28:15;23.80;99.90
20654;DHT22;21083;50.898;4.902;2024-03-08T15:30:45;24.30;99.90
20654;DHT22;21083;50.898;4.902;2024-03-08T15:33:17;24.40;99.90
20654;DHT22;21083;50.898;4.902;2024-03-08T15:35:52;24.00;99.90
20654;DHT22;21083;50.898;4.902;2024-03-08T15:38:24;23.70;99.90
20654;DHT22;21083;50.898;4.902;2024-03-08T15:40:53;23.90;99.90
20654;DHT22;21083;50.898;4.902;2024-03-08T15:43:20;24.20;99.90
20654;DHT22;21083;50.898;4.902;2024-03-08T15:45:48;24.30;99.90
20654;DHT22;21083;50.898;4.902;2024-03-08T15:48:15;24.50;99.90